Terminal Aerodrome Forecast
Issued by NWS

Home | Current Version | Previous Version | Text Only | Print | Product List | Glossary On
Versions: 1 2 3 4 5 6 7 8 9 10 11 12 13 14 15 16 17 18 19 20 21 22 23 24
000
FTUS45 KBOI 291120
TAFTWF
TAF
KTWF 291120Z 2912/3012 19009KT P6SM FEW120
     FM291500 VRB05KT P6SM SCT120
     FM292100 VRB05KT P6SM VCTS SCT070CB BKN100
     FM300300 17006KT P6SM VCSH SCT070 BKN100
     FM300800 20011KT P6SM SCT070 BKN100=

USA.gov is the U.S. government's official web portal to all federal, state and local government web resources and services.